sim
Sign-in with your pilot id or email,
or register
Callsign
Passwort

Schedule Details

Flight Number: DLH1971 (1)
Departure: Palermo Falcone-Borsellino Airport (LICJ) at 13:10
Arrival: Munich Airport (EDDM) at 15:15
Route: Lufthansa Passenger Schedule. Enter filed route here before submitting Pirep.

Weather Information
Getting current METAR information for LICJ 230950Z 27006KT 9999 FEW050 28/20 Q1014
Getting current METAR information for EDDM 230950Z 25009KT 5000 -SHRA FEW007 FEW015CB BKN025 15/14 Q1010 RESHRA NOSIG

Schedule Frequency

Route Map